sensor_id;sensor_type;location;lat;lon;timestamp;P1;durP1;ratioP1;P2;durP2;ratioP2
47844;SDS011;33605;48.822;8.796;2023-02-23T00:01:55;19.87;;;13.37;;
47844;SDS011;33605;48.822;8.796;2023-02-23T00:04:22;17.97;;;13.57;;
47844;SDS011;33605;48.822;8.796;2023-02-23T00:06:48;16.10;;;11.70;;
47844;SDS011;33605;48.822;8.796;2023-02-23T00:09:16;14.50;;;11.20;;
47844;SDS011;33605;48.822;8.796;2023-02-23T00:11:52;19.87;;;11.97;;
47844;SDS011;33605;48.822;8.796;2023-02-23T00:14:20;18.43;;;13.40;;
47844;SDS011;33605;48.822;8.796;2023-02-23T00:16:48;17.77;;;13.17;;
47844;SDS011;33605;48.822;8.796;2023-02-23T00:19:14;18.70;;;12.13;;
47844;SDS011;33605;48.822;8.796;2023-02-23T00:21:40;16.67;;;12.37;;
47844;SDS011;33605;48.822;8.796;2023-02-23T00:24:06;14.37;;;12.87;;
47844;SDS011;33605;48.822;8.796;2023-02-23T00:26:35;18.70;;;12.27;;
47844;SDS011;33605;48.822;8.796;2023-02-23T00:29:04;16.57;;;11.67;;
47844;SDS011;33605;48.822;8.796;2023-02-23T00:31:36;13.87;;;11.70;;
47844;SDS011;33605;48.822;8.796;2023-02-23T00:34:02;16.13;;;10.90;;
47844;SDS011;33605;48.822;8.796;2023-02-23T00:36:29;14.63;;;11.40;;
47844;SDS011;33605;48.822;8.796;2023-02-23T00:38:59;17.53;;;11.87;;
47844;SDS011;33605;48.822;8.796;2023-02-23T00:41:43;14.40;;;11.27;;
47844;SDS011;33605;48.822;8.796;2023-02-23T00:44:09;16.67;;;12.07;;
47844;SDS011;33605;48.822;8.796;2023-02-23T00:46:35;17.30;;;12.20;;
47844;SDS011;33605;48.822;8.796;2023-02-23T00:49:00;17.47;;;13.13;;
47844;SDS011;33605;48.822;8.796;2023-02-23T00:51:27;22.37;;;14.50;;
47844;SDS011;33605;48.822;8.796;2023-02-23T00:53:55;21.33;;;13.50;;
47844;SDS011;33605;48.822;8.796;2023-02-23T00:56:21;16.70;;;14.60;;
47844;SDS011;33605;48.822;8.796;2023-02-23T00:58:47;17.70;;;13.60;;
47844;SDS011;33605;48.822;8.796;2023-02-23T01:01:14;22.57;;;13.77;;
47844;SDS011;33605;48.822;8.796;2023-02-23T01:03:40;24.73;;;15.00;;
47844;SDS011;33605;48.822;8.796;2023-02-23T01:06:08;14.70;;;11.83;;
47844;SDS011;33605;48.822;8.796;2023-02-23T01:08:37;20.13;;;13.23;;
47844;SDS011;33605;48.822;8.796;2023-02-23T01:11:04;22.93;;;15.53;;
47844;SDS011;33605;48.822;8.796;2023-02-23T01:13:33;20.17;;;14.53;;
47844;SDS011;33605;48.822;8.796;2023-02-23T01:15:59;20.93;;;14.47;;
47844;SDS011;33605;48.822;8.796;2023-02-23T01:18:28;19.90;;;15.83;;
47844;SDS011;33605;48.822;8.796;2023-02-23T01:20:57;22.20;;;14.63;;
47844;SDS011;33605;48.822;8.796;2023-02-23T01:23:22;18.50;;;14.83;;
47844;SDS011;33605;48.822;8.796;2023-02-23T01:25:48;20.97;;;13.00;;
47844;SDS011;33605;48.822;8.796;2023-02-23T01:28:14;18.03;;;13.60;;
47844;SDS011;33605;48.822;8.796;2023-02-23T01:30:39;23.13;;;14.63;;
47844;SDS011;33605;48.822;8.796;2023-02-23T01:33:05;16.90;;;13.43;;
47844;SDS011;33605;48.822;8.796;2023-02-23T01:35:30;21.83;;;14.27;;
47844;SDS011;33605;48.822;8.796;2023-02-23T01:37:59;19.30;;;14.10;;
47844;SDS011;33605;48.822;8.796;2023-02-23T01:40:25;17.43;;;13.67;;
47844;SDS011;33605;48.822;8.796;2023-02-23T01:42:56;18.27;;;14.17;;
47844;SDS011;33605;48.822;8.796;2023-02-23T01:45:36;21.80;;;14.60;;
47844;SDS011;33605;48.822;8.796;2023-02-23T01:48:05;15.70;;;13.73;;
47844;SDS011;33605;48.822;8.796;2023-02-23T01:50:44;21.13;;;13.93;;
47844;SDS011;33605;48.822;8.796;2023-02-23T01:53:24;20.83;;;14.57;;
47844;SDS011;33605;48.822;8.796;2023-02-23T01:55:53;19.30;;;14.23;;
47844;SDS011;33605;48.822;8.796;2023-02-23T01:58:25;17.57;;;14.43;;
47844;SDS011;33605;48.822;8.796;2023-02-23T02:00:52;19.17;;;14.73;;
47844;SDS011;33605;48.822;8.796;2023-02-23T02:03:25;20.90;;;15.37;;
47844;SDS011;33605;48.822;8.796;2023-02-23T02:06:09;19.87;;;15.50;;
47844;SDS011;33605;48.822;8.796;2023-02-23T02:08:39;22.07;;;15.70;;
47844;SDS011;33605;48.822;8.796;2023-02-23T02:11:17;19.77;;;15.60;;
47844;SDS011;33605;48.822;8.796;2023-02-23T02:21:59;17.63;;;13.20;;
47844;SDS011;33605;48.822;8.796;2023-02-23T02:24:41;15.60;;;11.97;;
47844;SDS011;33605;48.822;8.796;2023-02-23T02:33:11;17.30;;;13.80;;
47844;SDS011;33605;48.822;8.796;2023-02-23T02:42:09;21.90;;;14.43;;
47844;SDS011;33605;48.822;8.796;2023-02-23T02:44:51;14.80;;;12.00;;
47844;SDS011;33605;48.822;8.796;2023-02-23T02:52:56;19.30;;;14.60;;
47844;SDS011;33605;48.822;8.796;2023-02-23T02:55:27;29.23;;;15.17;;
47844;SDS011;33605;48.822;8.796;2023-02-23T02:57:59;19.63;;;13.97;;
47844;SDS011;33605;48.822;8.796;2023-02-23T03:00:39;21.70;;;15.80;;
47844;SDS011;33605;48.822;8.796;2023-02-23T03:03:27;22.53;;;15.13;;
47844;SDS011;33605;48.822;8.796;2023-02-23T03:06:18;25.93;;;15.30;;
47844;SDS011;33605;48.822;8.796;2023-02-23T03:21:57;21.90;;;15.60;;
47844;SDS011;33605;48.822;8.796;2023-02-23T03:25:01;21.13;;;15.23;;
47844;SDS011;33605;48.822;8.796;2023-02-23T03:28:00;18.97;;;13.87;;
47844;SDS011;33605;48.822;8.796;2023-02-23T03:37:05;19.17;;;15.23;;
47844;SDS011;33605;48.822;8.796;2023-02-23T03:40:03;18.70;;;15.00;;
47844;SDS011;33605;48.822;8.796;2023-02-23T03:43:15;18.73;;;14.33;;
47844;SDS011;33605;48.822;8.796;2023-02-23T03:46:02;18.97;;;15.73;;
47844;SDS011;33605;48.822;8.796;2023-02-23T03:48:51;20.07;;;14.23;;
47844;SDS011;33605;48.822;8.796;2023-02-23T03:51:39;19.13;;;14.57;;
47844;SDS011;33605;48.822;8.796;2023-02-23T03:54:31;20.60;;;16.13;;
47844;SDS011;33605;48.822;8.796;2023-02-23T03:57:20;20.23;;;15.17;;
47844;SDS011;33605;48.822;8.796;2023-02-23T04:00:08;17.33;;;14.30;;
47844;SDS011;33605;48.822;8.796;2023-02-23T04:02:57;22.53;;;15.13;;
47844;SDS011;33605;48.822;8.796;2023-02-23T04:05:42;18.83;;;15.13;;
47844;SDS011;33605;48.822;8.796;2023-02-23T04:08:31;16.07;;;12.90;;
47844;SDS011;33605;48.822;8.796;2023-02-23T04:11:22;17.00;;;13.07;;
47844;SDS011;33605;48.822;8.796;2023-02-23T04:14:30;18.20;;;14.60;;
47844;SDS011;33605;48.822;8.796;2023-02-23T04:17:04;24.77;;;16.53;;
47844;SDS011;33605;48.822;8.796;2023-02-23T04:19:31;21.17;;;14.97;;
47844;SDS011;33605;48.822;8.796;2023-02-23T04:21:56;20.77;;;15.07;;
47844;SDS011;33605;48.822;8.796;2023-02-23T04:24:22;17.60;;;13.37;;
47844;SDS011;33605;48.822;8.796;2023-02-23T04:26:47;20.57;;;14.87;;
47844;SDS011;33605;48.822;8.796;2023-02-23T04:29:13;21.60;;;15.23;;
47844;SDS011;33605;48.822;8.796;2023-02-23T04:31:39;17.63;;;13.73;;
47844;SDS011;33605;48.822;8.796;2023-02-23T04:34:08;17.37;;;13.27;;
47844;SDS011;33605;48.822;8.796;2023-02-23T04:36:34;15.40;;;12.87;;
47844;SDS011;33605;48.822;8.796;2023-02-23T04:39:00;21.60;;;14.43;;
47844;SDS011;33605;48.822;8.796;2023-02-23T04:41:26;16.80;;;13.47;;
47844;SDS011;33605;48.822;8.796;2023-02-23T04:43:52;19.70;;;14.90;;
47844;SDS011;33605;48.822;8.796;2023-02-23T04:46:17;22.70;;;13.50;;
47844;SDS011;33605;48.822;8.796;2023-02-23T04:48:43;18.27;;;15.90;;
47844;SDS011;33605;48.822;8.796;2023-02-23T04:51:08;20.00;;;15.57;;
47844;SDS011;33605;48.822;8.796;2023-02-23T04:53:34;20.37;;;15.40;;
47844;SDS011;33605;48.822;8.796;2023-02-23T04:56:00;19.37;;;15.57;;
47844;SDS011;33605;48.822;8.796;2023-02-23T04:58:26;19.13;;;15.47;;
47844;SDS011;33605;48.822;8.796;2023-02-23T05:00:51;20.93;;;14.23;;
47844;SDS011;33605;48.822;8.796;2023-02-23T05:03:18;19.63;;;15.33;;
47844;SDS011;33605;48.822;8.796;2023-02-23T05:05:44;19.73;;;15.17;;
47844;SDS011;33605;48.822;8.796;2023-02-23T05:08:10;21.13;;;15.10;;
47844;SDS011;33605;48.822;8.796;2023-02-23T05:10:36;22.67;;;16.23;;
47844;SDS011;33605;48.822;8.796;2023-02-23T05:13:01;23.63;;;16.30;;
47844;SDS011;33605;48.822;8.796;2023-02-23T05:15:27;19.73;;;15.60;;
47844;SDS011;33605;48.822;8.796;2023-02-23T05:17:53;19.33;;;14.53;;
47844;SDS011;33605;48.822;8.796;2023-02-23T05:20:19;21.27;;;14.70;;
47844;SDS011;33605;48.822;8.796;2023-02-23T05:22:46;19.50;;;14.57;;
47844;SDS011;33605;48.822;8.796;2023-02-23T05:25:12;21.13;;;14.90;;
47844;SDS011;33605;48.822;8.796;2023-02-23T05:27:38;20.07;;;14.63;;
47844;SDS011;33605;48.822;8.796;2023-02-23T05:30:05;18.73;;;13.60;;
47844;SDS011;33605;48.822;8.796;2023-02-23T05:32:32;20.20;;;15.20;;
47844;SDS011;33605;48.822;8.796;2023-02-23T05:34:59;20.50;;;16.27;;
47844;SDS011;33605;48.822;8.796;2023-02-23T05:37:25;24.00;;;16.33;;
47844;SDS011;33605;48.822;8.796;2023-02-23T05:39:50;19.13;;;15.13;;
47844;SDS011;33605;48.822;8.796;2023-02-23T05:42:17;21.10;;;16.10;;
47844;SDS011;33605;48.822;8.796;2023-02-23T05:44:42;17.77;;;15.50;;
47844;SDS011;33605;48.822;8.796;2023-02-23T05:47:08;21.37;;;15.50;;
47844;SDS011;33605;48.822;8.796;2023-02-23T05:49:34;23.80;;;15.17;;
47844;SDS011;33605;48.822;8.796;2023-02-23T05:52:00;22.93;;;15.60;;
47844;SDS011;33605;48.822;8.796;2023-02-23T05:54:26;17.70;;;13.83;;
47844;SDS011;33605;48.822;8.796;2023-02-23T05:56:52;15.73;;;12.90;;
47844;SDS011;33605;48.822;8.796;2023-02-23T05:59:17;17.30;;;12.67;;
47844;SDS011;33605;48.822;8.796;2023-02-23T06:01:43;22.30;;;15.90;;
47844;SDS011;33605;48.822;8.796;2023-02-23T06:04:09;19.90;;;15.40;;
47844;SDS011;33605;48.822;8.796;2023-02-23T06:06:34;19.90;;;13.30;;
47844;SDS011;33605;48.822;8.796;2023-02-23T06:09:00;18.13;;;11.40;;
47844;SDS011;33605;48.822;8.796;2023-02-23T06:11:27;18.03;;;11.07;;
47844;SDS011;33605;48.822;8.796;2023-02-23T06:13:54;15.87;;;13.00;;
47844;SDS011;33605;48.822;8.796;2023-02-23T06:16:23;20.07;;;14.50;;
47844;SDS011;33605;48.822;8.796;2023-02-23T06:18:52;24.93;;;16.03;;
47844;SDS011;33605;48.822;8.796;2023-02-23T06:21:18;25.70;;;15.37;;
47844;SDS011;33605;48.822;8.796;2023-02-23T06:23:44;22.50;;;15.43;;
47844;SDS011;33605;48.822;8.796;2023-02-23T06:26:10;20.03;;;14.60;;
47844;SDS011;33605;48.822;8.796;2023-02-23T06:28:35;17.87;;;13.57;;
47844;SDS011;33605;48.822;8.796;2023-02-23T06:31:01;18.67;;;14.53;;
47844;SDS011;33605;48.822;8.796;2023-02-23T06:33:26;19.87;;;14.10;;
47844;SDS011;33605;48.822;8.796;2023-02-23T06:35:52;17.50;;;14.73;;
47844;SDS011;33605;48.822;8.796;2023-02-23T06:38:19;21.90;;;15.63;;
47844;SDS011;33605;48.822;8.796;2023-02-23T06:40:45;20.47;;;16.00;;
47844;SDS011;33605;48.822;8.796;2023-02-23T06:43:12;19.93;;;15.63;;
47844;SDS011;33605;48.822;8.796;2023-02-23T06:45:37;22.80;;;16.50;;
47844;SDS011;33605;48.822;8.796;2023-02-23T06:48:06;26.97;;;19.93;;
47844;SDS011;33605;48.822;8.796;2023-02-23T06:50:32;30.07;;;20.63;;
47844;SDS011;33605;48.822;8.796;2023-02-23T06:52:58;33.10;;;22.40;;
47844;SDS011;33605;48.822;8.796;2023-02-23T06:55:23;27.00;;;19.73;;
47844;SDS011;33605;48.822;8.796;2023-02-23T06:57:50;20.03;;;16.10;;
47844;SDS011;33605;48.822;8.796;2023-02-23T07:00:17;19.10;;;13.63;;
47844;SDS011;33605;48.822;8.796;2023-02-23T07:02:44;17.53;;;13.07;;
47844;SDS011;33605;48.822;8.796;2023-02-23T07:05:10;16.80;;;13.87;;
47844;SDS011;33605;48.822;8.796;2023-02-23T07:07:36;19.77;;;14.77;;
47844;SDS011;33605;48.822;8.796;2023-02-23T07:10:03;19.50;;;13.70;;
47844;SDS011;33605;48.822;8.796;2023-02-23T07:12:29;19.23;;;14.87;;
47844;SDS011;33605;48.822;8.796;2023-02-23T07:14:55;16.93;;;13.30;;
47844;SDS011;33605;48.822;8.796;2023-02-23T07:17:21;17.67;;;14.37;;
47844;SDS011;33605;48.822;8.796;2023-02-23T07:19:46;21.67;;;15.87;;
47844;SDS011;33605;48.822;8.796;2023-02-23T07:22:12;20.07;;;15.00;;
47844;SDS011;33605;48.822;8.796;2023-02-23T07:24:38;20.63;;;16.10;;
47844;SDS011;33605;48.822;8.796;2023-02-23T07:27:03;22.40;;;16.17;;
47844;SDS011;33605;48.822;8.796;2023-02-23T07:29:29;24.30;;;17.07;;
47844;SDS011;33605;48.822;8.796;2023-02-23T07:31:55;19.37;;;15.60;;
47844;SDS011;33605;48.822;8.796;2023-02-23T07:34:20;20.43;;;15.43;;
47844;SDS011;33605;48.822;8.796;2023-02-23T07:36:46;20.63;;;15.20;;
47844;SDS011;33605;48.822;8.796;2023-02-23T07:39:12;21.60;;;17.00;;
47844;SDS011;33605;48.822;8.796;2023-02-23T07:41:38;22.80;;;16.93;;
47844;SDS011;33605;48.822;8.796;2023-02-23T07:44:04;20.30;;;14.63;;
47844;SDS011;33605;48.822;8.796;2023-02-23T07:46:30;17.90;;;14.43;;
47844;SDS011;33605;48.822;8.796;2023-02-23T07:48:56;23.30;;;15.80;;
47844;SDS011;33605;48.822;8.796;2023-02-23T07:51:21;19.87;;;16.07;;
47844;SDS011;33605;48.822;8.796;2023-02-23T07:53:47;19.90;;;15.83;;
47844;SDS011;33605;48.822;8.796;2023-02-23T07:56:13;21.80;;;16.10;;
47844;SDS011;33605;48.822;8.796;2023-02-23T07:58:39;19.73;;;15.80;;
47844;SDS011;33605;48.822;8.796;2023-02-23T08:01:06;23.40;;;15.57;;
47844;SDS011;33605;48.822;8.796;2023-02-23T08:03:33;19.03;;;14.80;;
47844;SDS011;33605;48.822;8.796;2023-02-23T08:06:00;20.23;;;15.37;;
47844;SDS011;33605;48.822;8.796;2023-02-23T08:08:26;18.00;;;14.20;;
47844;SDS011;33605;48.822;8.796;2023-02-23T08:11:02;18.27;;;13.83;;
47844;SDS011;33605;48.822;8.796;2023-02-23T08:13:30;16.50;;;13.37;;
47844;SDS011;33605;48.822;8.796;2023-02-23T08:15:56;15.20;;;12.90;;
47844;SDS011;33605;48.822;8.796;2023-02-23T08:18:22;17.23;;;13.27;;
47844;SDS011;33605;48.822;8.796;2023-02-23T08:20:48;18.30;;;12.77;;
47844;SDS011;33605;48.822;8.796;2023-02-23T08:23:14;19.53;;;14.43;;
47844;SDS011;33605;48.822;8.796;2023-02-23T08:25:42;18.27;;;14.67;;
47844;SDS011;33605;48.822;8.796;2023-02-23T08:28:07;14.77;;;12.57;;
47844;SDS011;33605;48.822;8.796;2023-02-23T08:30:33;17.00;;;14.17;;
47844;SDS011;33605;48.822;8.796;2023-02-23T08:32:59;14.63;;;12.07;;
47844;SDS011;33605;48.822;8.796;2023-02-23T08:35:25;17.33;;;11.97;;
47844;SDS011;33605;48.822;8.796;2023-02-23T08:37:52;18.07;;;13.13;;
47844;SDS011;33605;48.822;8.796;2023-02-23T08:40:18;17.07;;;13.17;;
47844;SDS011;33605;48.822;8.796;2023-02-23T08:42:44;16.53;;;13.00;;
47844;SDS011;33605;48.822;8.796;2023-02-23T08:45:12;16.10;;;12.90;;
47844;SDS011;33605;48.822;8.796;2023-02-23T08:47:38;18.67;;;13.63;;
47844;SDS011;33605;48.822;8.796;2023-02-23T08:50:04;19.10;;;14.50;;
47844;SDS011;33605;48.822;8.796;2023-02-23T08:52:30;17.13;;;13.30;;
47844;SDS011;33605;48.822;8.796;2023-02-23T08:54:56;16.93;;;12.27;;
47844;SDS011;33605;48.822;8.796;2023-02-23T08:57:22;15.83;;;12.37;;
47844;SDS011;33605;48.822;8.796;2023-02-23T08:59:48;17.00;;;11.60;;
47844;SDS011;33605;48.822;8.796;2023-02-23T09:02:14;13.13;;;10.73;;
47844;SDS011;33605;48.822;8.796;2023-02-23T09:04:40;12.50;;;10.50;;
47844;SDS011;33605;48.822;8.796;2023-02-23T09:07:07;10.80;;;8.67;;
47844;SDS011;33605;48.822;8.796;2023-02-23T09:09:33;14.67;;;8.60;;
47844;SDS011;33605;48.822;8.796;2023-02-23T09:11:59;14.77;;;8.37;;
47844;SDS011;33605;48.822;8.796;2023-02-23T09:14:26;8.13;;;7.07;;
47844;SDS011;33605;48.822;8.796;2023-02-23T09:16:52;10.43;;;7.50;;
47844;SDS011;33605;48.822;8.796;2023-02-23T09:19:18;8.47;;;7.03;;
47844;SDS011;33605;48.822;8.796;2023-02-23T09:21:44;11.10;;;8.90;;
47844;SDS011;33605;48.822;8.796;2023-02-23T09:24:10;8.97;;;7.90;;
47844;SDS011;33605;48.822;8.796;2023-02-23T09:26:36;9.73;;;7.43;;
47844;SDS011;33605;48.822;8.796;2023-02-23T09:29:04;11.40;;;8.57;;
47844;SDS011;33605;48.822;8.796;2023-02-23T09:31:30;10.10;;;8.57;;
47844;SDS011;33605;48.822;8.796;2023-02-23T09:33:57;9.63;;;6.60;;
47844;SDS011;33605;48.822;8.796;2023-02-23T09:36:24;9.60;;;7.33;;
47844;SDS011;33605;48.822;8.796;2023-02-23T09:38:51;8.17;;;7.37;;
47844;SDS011;33605;48.822;8.796;2023-02-23T09:46:25;9.53;;;7.53;;
47844;SDS011;33605;48.822;8.796;2023-02-23T09:48:58;10.90;;;7.37;;
47844;SDS011;33605;48.822;8.796;2023-02-23T09:51:25;7.23;;;5.90;;
47844;SDS011;33605;48.822;8.796;2023-02-23T09:53:54;7.47;;;6.30;;
47844;SDS011;33605;48.822;8.796;2023-02-23T09:56:32;7.07;;;6.00;;
47844;SDS011;33605;48.822;8.796;2023-02-23T09:59:01;6.73;;;5.13;;
47844;SDS011;33605;48.822;8.796;2023-02-23T10:04:05;8.10;;;7.23;;
47844;SDS011;33605;48.822;8.796;2023-02-23T10:06:33;11.13;;;6.20;;
47844;SDS011;33605;48.822;8.796;2023-02-23T10:11:45;6.53;;;5.63;;
47844;SDS011;33605;48.822;8.796;2023-02-23T10:17:02;6.17;;;5.30;;
47844;SDS011;33605;48.822;8.796;2023-02-23T10:22:05;6.37;;;5.20;;
47844;SDS011;33605;48.822;8.796;2023-02-23T10:24:36;6.53;;;5.53;;
47844;SDS011;33605;48.822;8.796;2023-02-23T10:27:08;8.00;;;4.40;;
47844;SDS011;33605;48.822;8.796;2023-02-23T10:29:48;8.37;;;5.37;;
47844;SDS011;33605;48.822;8.796;2023-02-23T10:34:48;6.17;;;4.10;;
47844;SDS011;33605;48.822;8.796;2023-02-23T10:37:17;4.70;;;3.70;;
47844;SDS011;33605;48.822;8.796;2023-02-23T10:39:43;6.93;;;3.93;;
47844;SDS011;33605;48.822;8.796;2023-02-23T10:42:12;7.80;;;3.70;;
47844;SDS011;33605;48.822;8.796;2023-02-23T10:44:39;5.03;;;3.57;;
47844;SDS011;33605;48.822;8.796;2023-02-23T10:47:10;6.30;;;3.60;;
47844;SDS011;33605;48.822;8.796;2023-02-23T10:49:39;3.40;;;2.80;;
47844;SDS011;33605;48.822;8.796;2023-02-23T10:52:09;10.80;;;4.20;;
47844;SDS011;33605;48.822;8.796;2023-02-23T10:57:03;3.90;;;3.17;;
47844;SDS011;33605;48.822;8.796;2023-02-23T10:59:30;4.00;;;3.20;;
47844;SDS011;33605;48.822;8.796;2023-02-23T11:01:56;9.93;;;3.40;;
47844;SDS011;33605;48.822;8.796;2023-02-23T11:04:24;7.27;;;4.00;;
47844;SDS011;33605;48.822;8.796;2023-02-23T11:07:05;5.73;;;4.40;;
47844;SDS011;33605;48.822;8.796;2023-02-23T11:09:32;6.50;;;3.63;;
47844;SDS011;33605;48.822;8.796;2023-02-23T11:11:59;5.67;;;3.33;;
47844;SDS011;33605;48.822;8.796;2023-02-23T11:14:26;4.90;;;3.30;;
47844;SDS011;33605;48.822;8.796;2023-02-23T11:16:54;4.47;;;3.40;;
47844;SDS011;33605;48.822;8.796;2023-02-23T11:19:26;5.70;;;3.80;;
47844;SDS011;33605;48.822;8.796;2023-02-23T11:21:54;4.37;;;3.70;;
47844;SDS011;33605;48.822;8.796;2023-02-23T11:24:24;4.27;;;3.33;;
47844;SDS011;33605;48.822;8.796;2023-02-23T11:26:54;8.40;;;4.23;;
47844;SDS011;33605;48.822;8.796;2023-02-23T11:29:26;6.50;;;3.63;;
47844;SDS011;33605;48.822;8.796;2023-02-23T11:31:57;5.90;;;4.20;;
47844;SDS011;33605;48.822;8.796;2023-02-23T11:34:31;5.20;;;4.17;;
47844;SDS011;33605;48.822;8.796;2023-02-23T11:36:58;7.50;;;4.10;;
47844;SDS011;33605;48.822;8.796;2023-02-23T11:39:25;6.93;;;4.00;;
47844;SDS011;33605;48.822;8.796;2023-02-23T11:44:36;7.10;;;3.57;;
47844;SDS011;33605;48.822;8.796;2023-02-23T11:47:02;6.27;;;3.30;;
47844;SDS011;33605;48.822;8.796;2023-02-23T11:49:30;6.70;;;3.70;;
47844;SDS011;33605;48.822;8.796;2023-02-23T11:51:59;4.80;;;2.83;;
47844;SDS011;33605;48.822;8.796;2023-02-23T11:54:29;14.13;;;4.33;;
47844;SDS011;33605;48.822;8.796;2023-02-23T11:56:57;5.17;;;3.90;;
47844;SDS011;33605;48.822;8.796;2023-02-23T11:59:30;7.60;;;4.10;;
47844;SDS011;33605;48.822;8.796;2023-02-23T12:02:00;5.30;;;4.00;;
47844;SDS011;33605;48.822;8.796;2023-02-23T12:04:29;4.43;;;3.60;;
47844;SDS011;33605;48.822;8.796;2023-02-23T12:09:41;7.70;;;3.67;;
47844;SDS011;33605;48.822;8.796;2023-02-23T12:12:11;6.27;;;3.90;;
47844;SDS011;33605;48.822;8.796;2023-02-23T12:14:47;10.67;;;3.77;;
47844;SDS011;33605;48.822;8.796;2023-02-23T12:17:26;5.70;;;3.23;;
47844;SDS011;33605;48.822;8.796;2023-02-23T12:20:03;4.87;;;3.80;;
47844;SDS011;33605;48.822;8.796;2023-02-23T12:25:24;5.73;;;3.40;;
47844;SDS011;33605;48.822;8.796;2023-02-23T12:28:00;6.33;;;2.87;;
47844;SDS011;33605;48.822;8.796;2023-02-23T12:30:38;7.10;;;3.63;;
47844;SDS011;33605;48.822;8.796;2023-02-23T12:35:41;3.67;;;3.23;;
47844;SDS011;33605;48.822;8.796;2023-02-23T12:38:11;4.07;;;3.20;;
47844;SDS011;33605;48.822;8.796;2023-02-23T12:40:40;6.73;;;3.70;;
47844;SDS011;33605;48.822;8.796;2023-02-23T12:43:10;3.30;;;3.00;;
47844;SDS011;33605;48.822;8.796;2023-02-23T12:45:53;6.00;;;3.90;;
47844;SDS011;33605;48.822;8.796;2023-02-23T12:50:53;4.70;;;3.90;;
47844;SDS011;33605;48.822;8.796;2023-02-23T12:53:36;5.50;;;3.90;;
47844;SDS011;33605;48.822;8.796;2023-02-23T12:56:05;10.90;;;4.17;;
47844;SDS011;33605;48.822;8.796;2023-02-23T13:01:34;5.13;;;4.00;;
47844;SDS011;33605;48.822;8.796;2023-02-23T13:06:57;5.20;;;4.50;;
47844;SDS011;33605;48.822;8.796;2023-02-23T13:09:44;5.30;;;3.73;;
47844;SDS011;33605;48.822;8.796;2023-02-23T13:12:18;4.17;;;3.80;;
47844;SDS011;33605;48.822;8.796;2023-02-23T13:15:07;4.93;;;4.00;;
47844;SDS011;33605;48.822;8.796;2023-02-23T13:20:14;5.57;;;4.00;;
47844;SDS011;33605;48.822;8.796;2023-02-23T13:22:58;7.07;;;3.83;;
47844;SDS011;33605;48.822;8.796;2023-02-23T13:25:46;5.47;;;3.70;;
47844;SDS011;33605;48.822;8.796;2023-02-23T13:28:16;4.10;;;3.30;;
47844;SDS011;33605;48.822;8.796;2023-02-23T13:30:43;4.93;;;3.63;;
47844;SDS011;33605;48.822;8.796;2023-02-23T13:33:20;4.47;;;3.40;;
47844;SDS011;33605;48.822;8.796;2023-02-23T13:35:48;8.00;;;5.90;;
47844;SDS011;33605;48.822;8.796;2023-02-23T13:41:23;10.63;;;5.70;;
47844;SDS011;33605;48.822;8.796;2023-02-23T13:43:58;14.83;;;6.80;;
47844;SDS011;33605;48.822;8.796;2023-02-23T13:46:35;13.67;;;7.47;;
47844;SDS011;33605;48.822;8.796;2023-02-23T13:49:15;7.53;;;6.40;;
47844;SDS011;33605;48.822;8.796;2023-02-23T13:51:46;7.07;;;5.80;;
47844;SDS011;33605;48.822;8.796;2023-02-23T13:56:43;7.67;;;5.70;;
47844;SDS011;33605;48.822;8.796;2023-02-23T13:59:27;13.83;;;6.37;;
47844;SDS011;33605;48.822;8.796;2023-02-23T14:01:54;17.03;;;5.27;;
47844;SDS011;33605;48.822;8.796;2023-02-23T14:04:24;10.60;;;7.10;;
47844;SDS011;33605;48.822;8.796;2023-02-23T14:07:02;10.87;;;6.50;;
47844;SDS011;33605;48.822;8.796;2023-02-23T14:09:30;7.00;;;5.30;;
47844;SDS011;33605;48.822;8.796;2023-02-23T14:22:24;4.83;;;4.27;;
47844;SDS011;33605;48.822;8.796;2023-02-23T14:27:43;11.63;;;4.97;;
47844;SDS011;33605;48.822;8.796;2023-02-23T14:32:37;8.23;;;4.47;;
47844;SDS011;33605;48.822;8.796;2023-02-23T14:35:04;8.97;;;5.40;;
47844;SDS011;33605;48.822;8.796;2023-02-23T14:37:33;8.37;;;6.17;;
47844;SDS011;33605;48.822;8.796;2023-02-23T14:40:03;15.50;;;7.70;;
47844;SDS011;33605;48.822;8.796;2023-02-23T14:42:29;8.70;;;5.53;;
47844;SDS011;33605;48.822;8.796;2023-02-23T14:44:57;7.90;;;5.53;;
47844;SDS011;33605;48.822;8.796;2023-02-23T14:47:27;10.47;;;5.20;;
47844;SDS011;33605;48.822;8.796;2023-02-23T14:49:55;7.83;;;4.50;;
47844;SDS011;33605;48.822;8.796;2023-02-23T14:54:49;12.70;;;9.10;;
47844;SDS011;33605;48.822;8.796;2023-02-23T14:57:25;10.37;;;8.03;;
47844;SDS011;33605;48.822;8.796;2023-02-23T14:59:58;7.70;;;5.43;;
47844;SDS011;33605;48.822;8.796;2023-02-23T15:02:26;8.10;;;5.50;;
47844;SDS011;33605;48.822;8.796;2023-02-23T15:04:53;8.57;;;6.20;;
47844;SDS011;33605;48.822;8.796;2023-02-23T15:07:20;11.33;;;9.53;;
47844;SDS011;33605;48.822;8.796;2023-02-23T15:09:50;11.27;;;10.10;;
47844;SDS011;33605;48.822;8.796;2023-02-23T15:12:23;10.77;;;8.70;;
47844;SDS011;33605;48.822;8.796;2023-02-23T15:14:52;9.47;;;5.93;;
47844;SDS011;33605;48.822;8.796;2023-02-23T15:17:21;9.00;;;6.60;;
47844;SDS011;33605;48.822;8.796;2023-02-23T15:19:53;10.27;;;7.17;;
47844;SDS011;33605;48.822;8.796;2023-02-23T15:22:24;8.33;;;5.83;;
47844;SDS011;33605;48.822;8.796;2023-02-23T15:24:51;7.97;;;5.13;;
47844;SDS011;33605;48.822;8.796;2023-02-23T15:27:21;5.87;;;5.27;;
47844;SDS011;33605;48.822;8.796;2023-02-23T15:29:50;9.93;;;4.90;;
47844;SDS011;33605;48.822;8.796;2023-02-23T15:32:21;8.07;;;5.07;;
47844;SDS011;33605;48.822;8.796;2023-02-23T15:34:49;8.37;;;4.77;;
47844;SDS011;33605;48.822;8.796;2023-02-23T15:39:52;12.63;;;7.40;;
47844;SDS011;33605;48.822;8.796;2023-02-23T15:42:24;14.77;;;9.53;;
47844;SDS011;33605;48.822;8.796;2023-02-23T15:44:53;14.40;;;9.10;;
47844;SDS011;33605;48.822;8.796;2023-02-23T15:47:20;11.53;;;9.10;;
47844;SDS011;33605;48.822;8.796;2023-02-23T15:49:46;15.50;;;10.33;;
47844;SDS011;33605;48.822;8.796;2023-02-23T15:52:16;12.37;;;8.00;;
47844;SDS011;33605;48.822;8.796;2023-02-23T15:57:17;10.73;;;5.57;;
47844;SDS011;33605;48.822;8.796;2023-02-23T15:59:45;12.53;;;8.10;;
47844;SDS011;33605;48.822;8.796;2023-02-23T16:02:16;11.30;;;8.73;;
47844;SDS011;33605;48.822;8.796;2023-02-23T16:04:44;15.00;;;10.00;;
47844;SDS011;33605;48.822;8.796;2023-02-23T16:09:45;9.10;;;6.77;;
47844;SDS011;33605;48.822;8.796;2023-02-23T16:12:13;13.87;;;8.20;;
47844;SDS011;33605;48.822;8.796;2023-02-23T16:14:43;11.17;;;6.97;;
47844;SDS011;33605;48.822;8.796;2023-02-23T16:17:43;9.10;;;6.80;;
47844;SDS011;33605;48.822;8.796;2023-02-23T16:20:25;12.60;;;7.53;;
47844;SDS011;33605;48.822;8.796;2023-02-23T16:22:50;7.30;;;6.10;;
47844;SDS011;33605;48.822;8.796;2023-02-23T16:25:19;9.73;;;5.60;;
47844;SDS011;33605;48.822;8.796;2023-02-23T16:27:46;5.20;;;4.53;;
47844;SDS011;33605;48.822;8.796;2023-02-23T16:30:17;6.40;;;5.30;;
47844;SDS011;33605;48.822;8.796;2023-02-23T16:32:47;7.27;;;5.20;;
47844;SDS011;33605;48.822;8.796;2023-02-23T16:37:49;9.00;;;5.23;;
47844;SDS011;33605;48.822;8.796;2023-02-23T16:40:16;9.40;;;5.20;;
47844;SDS011;33605;48.822;8.796;2023-02-23T16:42:42;7.80;;;5.27;;
47844;SDS011;33605;48.822;8.796;2023-02-23T16:45:12;8.20;;;6.00;;
47844;SDS011;33605;48.822;8.796;2023-02-23T16:47:42;7.33;;;5.27;;
47844;SDS011;33605;48.822;8.796;2023-02-23T16:50:21;8.60;;;5.77;;